createdAt,value
2023-11-22T00:00:29.893Z,64.34
2023-11-22T00:05:56.823Z,64.40
2023-11-22T00:11:04.174Z,64.11
2023-11-22T00:16:12.113Z,64.31
2023-11-22T00:21:19.304Z,64.23
2023-11-22T00:26:26.521Z,64.03
2023-11-22T00:31:33.975Z,64.35
2023-11-22T00:36:41.012Z,64.51
2023-11-22T00:41:48.078Z,64.18
2023-11-22T00:46:55.224Z,64.48
2023-11-22T00:52:04.084Z,64.30
2023-11-22T00:57:11.274Z,64.24
2023-11-22T01:02:18.465Z,64.39
2023-11-22T01:07:25.635Z,64.37
2023-11-22T01:12:32.679Z,64.35
2023-11-22T01:17:39.784Z,64.14
2023-11-22T01:22:46.890Z,64.30
2023-11-22T01:27:54.231Z,64.33
2023-11-22T01:33:01.397Z,64.56
2023-11-22T01:38:08.347Z,64.22
2023-11-22T01:43:18.040Z,64.41
2023-11-22T01:48:25.527Z,64.33
2023-11-22T01:53:34.051Z,64.40
2023-11-22T01:58:41.209Z,64.28
2023-11-22T02:03:49.976Z,64.19
2023-11-22T02:08:57.023Z,64.26
2023-11-22T02:14:04.056Z,64.19
2023-11-22T02:19:17.250Z,64.39
2023-11-22T02:24:24.413Z,64.34
2023-11-22T02:29:31.492Z,64.29
2023-11-22T02:34:38.709Z,64.21
2023-11-22T02:39:52.784Z,64.36
2023-11-22T02:44:59.813Z,64.61
2023-11-22T02:50:07.301Z,64.34
2023-11-22T02:55:14.413Z,64.66
2023-11-22T03:00:21.798Z,64.39
2023-11-22T03:05:28.803Z,64.28
2023-11-22T03:10:37.051Z,64.66
2023-11-22T03:15:44.042Z,64.71
2023-11-22T03:20:55.910Z,64.60
2023-11-22T03:26:03.111Z,64.32
2023-11-22T03:31:10.731Z,64.55
2023-11-22T03:36:17.989Z,64.47
2023-11-22T03:41:24.725Z,64.41
2023-11-22T03:46:31.792Z,64.21
2023-11-22T03:51:39.383Z,64.32
2023-11-22T03:56:46.405Z,64.66
2023-11-22T04:01:53.610Z,64.49
2023-11-22T04:07:00.875Z,64.38
2023-11-22T04:12:08.457Z,64.51
2023-11-22T04:17:15.433Z,64.41
2023-11-22T04:22:22.942Z,64.52
2023-11-22T04:27:29.993Z,64.44
2023-11-22T04:32:37.754Z,64.40
2023-11-22T04:37:44.818Z,64.36
2023-11-22T04:42:51.864Z,64.64
2023-11-22T04:47:59.635Z,64.47
2023-11-22T04:53:06.925Z,64.65
2023-11-22T04:58:14.199Z,64.48
2023-11-22T05:03:21.223Z,64.41
2023-11-22T05:08:29.041Z,64.33
2023-11-22T05:13:36.054Z,64.46
2023-11-22T05:18:43.211Z,64.71
2023-11-22T05:23:50.209Z,64.26
2023-11-22T05:28:57.355Z,64.53
2023-11-22T05:34:04.846Z,64.52
2023-11-22T05:39:13.478Z,64.47
2023-11-22T05:44:20.651Z,64.54
2023-11-22T05:49:27.774Z,64.68
2023-11-22T05:54:34.897Z,64.46
2023-11-22T05:59:42.109Z,64.63
2023-11-22T06:04:49.444Z,64.67
2023-11-22T06:09:56.445Z,64.45
2023-11-22T06:15:05.026Z,64.40
2023-11-22T06:20:13.118Z,64.39
2023-11-22T06:25:20.154Z,64.56
2023-11-22T06:30:27.662Z,64.72
2023-11-22T06:35:34.841Z,64.39
2023-11-22T06:40:41.965Z,64.57
2023-11-22T06:45:49.264Z,64.58
2023-11-22T06:50:56.554Z,64.52
2023-11-22T06:56:05.154Z,64.70
2023-11-22T07:01:13.824Z,64.68
2023-11-22T07:06:24.007Z,64.42
2023-11-22T07:11:32.290Z,64.41
2023-11-22T07:16:39.391Z,64.48
2023-11-22T07:21:46.517Z,64.30
2023-11-22T07:26:54.733Z,64.35
2023-11-22T07:32:02.486Z,64.41
2023-11-22T07:37:10.737Z,64.44
2023-11-22T07:42:17.715Z,64.75
2023-11-22T07:47:26.002Z,64.47
2023-11-22T07:52:33.765Z,64.39
2023-11-22T07:57:42.318Z,64.68
2023-11-22T08:02:49.283Z,64.27
2023-11-22T08:07:56.496Z,64.54
2023-11-22T08:13:03.775Z,64.42
2023-11-22T08:18:11.854Z,64.78
2023-11-22T08:23:19.794Z,64.59
2023-11-22T08:28:27.415Z,64.19
2023-11-22T08:33:34.639Z,64.48
2023-11-22T08:38:42.892Z,64.23
2023-11-22T08:43:51.001Z,64.27
2023-11-22T08:48:58.218Z,64.44
2023-11-22T08:54:06.114Z,64.37
2023-11-22T08:59:13.487Z,64.55
2023-11-22T09:04:21.422Z,64.31
2023-11-22T09:09:32.712Z,64.32
2023-11-22T09:14:39.812Z,64.30
2023-11-22T09:19:47.178Z,64.48
2023-11-22T09:24:54.459Z,64.26
2023-11-22T09:30:01.927Z,64.15
2023-11-22T09:35:11.123Z,64.41
2023-11-22T09:40:19.835Z,64.50
2023-11-22T09:45:27.791Z,64.47
2023-11-22T09:50:38.835Z,64.46
2023-11-22T09:55:47.517Z,64.09
2023-11-22T10:00:55.593Z,64.38
2023-11-22T10:06:05.927Z,64.40
2023-11-22T10:11:14.780Z,64.45
2023-11-22T10:16:22.637Z,64.36
2023-11-22T10:21:31.975Z,64.37
2023-11-22T10:26:38.978Z,64.36
2023-11-22T10:31:47.282Z,64.60
2023-11-22T10:36:55.799Z,64.47
2023-11-22T10:42:03.071Z,64.67
2023-11-22T10:47:11.073Z,64.31
2023-11-22T10:52:20.553Z,64.30
2023-11-22T10:57:29.626Z,64.17
2023-11-22T11:02:38.992Z,64.32
2023-11-22T11:07:48.025Z,64.29
2023-11-22T11:12:55.944Z,64.22
2023-11-22T11:18:04.339Z,64.35
2023-11-22T11:23:16.583Z,64.42
2023-11-22T11:28:23.727Z,64.52
2023-11-22T11:33:36.864Z,64.35
2023-11-22T11:38:43.875Z,64.30
2023-11-22T11:43:51.832Z,64.50
2023-11-22T11:48:59.080Z,64.36
2023-11-22T11:54:07.046Z,64.23
2023-11-22T11:59:14.295Z,64.40
2023-11-22T12:04:21.304Z,64.31
2023-11-22T12:09:29.193Z,64.49
2023-11-22T12:14:36.477Z,64.53
2023-11-22T12:19:43.692Z,64.27
2023-11-22T12:24:52.298Z,64.09
2023-11-22T12:29:59.717Z,64.23
2023-11-22T12:35:08.962Z,64.37
2023-11-22T12:40:19.134Z,64.49
2023-11-22T12:45:27.021Z,64.26
2023-11-22T12:50:34.638Z,64.32
2023-11-22T12:55:44.902Z,64.48
2023-11-22T13:00:53.100Z,64.51
2023-11-22T13:06:00.318Z,64.45
2023-11-22T13:11:09.237Z,64.35
2023-11-22T13:16:17.970Z,64.25
2023-11-22T13:21:25.334Z,64.30
2023-11-22T13:26:32.441Z,64.16
2023-11-22T13:31:39.555Z,64.29
2023-11-22T13:36:46.842Z,64.19
2023-11-22T13:41:54.394Z,64.50
2023-11-22T13:47:01.492Z,64.30
2023-11-22T13:52:08.803Z,64.32
2023-11-22T13:57:15.958Z,64.25
2023-11-22T14:02:23.140Z,64.38
2023-11-22T14:07:30.851Z,64.29
2023-11-22T14:12:38.255Z,64.46
2023-11-22T14:17:45.518Z,64.34
2023-11-22T14:22:53.689Z,64.26
2023-11-22T14:28:01.237Z,64.22
2023-11-22T14:33:09.555Z,64.31
2023-11-22T14:38:16.982Z,64.36
2023-11-22T14:43:24.081Z,64.41
2023-11-22T14:48:31.235Z,64.27
2023-11-22T14:53:40.248Z,64.38
2023-11-22T14:58:55.365Z,64.09
2023-11-22T15:04:02.473Z,63.71
2023-11-22T15:09:11.356Z,63.53
2023-11-22T15:14:18.331Z,63.98
2023-11-22T15:19:29.175Z,63.89
2023-11-22T15:24:36.594Z,63.97
2023-11-22T15:29:43.881Z,63.44
2023-11-22T15:34:50.937Z,63.35
2023-11-22T15:39:57.909Z,63.31
2023-11-22T15:45:04.994Z,63.35
2023-11-22T15:55:34.261Z,63.26
2023-11-22T16:00:41.953Z,63.01
2023-11-22T16:05:50.200Z,62.87
2023-11-22T16:10:57.314Z,62.91
2023-11-22T16:16:04.687Z,62.57
2023-11-22T16:21:12.598Z,62.54
2023-11-22T16:26:20.843Z,62.35
2023-11-22T16:31:27.932Z,62.38
2023-11-22T16:36:35.179Z,62.33
2023-11-22T16:41:43.545Z,62.42
2023-11-22T16:46:50.883Z,62.25
2023-11-22T16:51:57.724Z,62.29
2023-11-22T16:57:04.756Z,62.32
2023-11-22T17:02:13.848Z,62.37
2023-11-22T17:07:20.901Z,62.30
2023-11-22T17:12:28.182Z,62.41
2023-11-22T17:17:36.467Z,62.21
2023-11-22T17:22:43.842Z,62.39
2023-11-22T17:27:55.191Z,62.39
2023-11-22T17:33:04.215Z,62.34
2023-11-22T17:38:11.655Z,62.19
2023-11-22T17:43:19.545Z,62.39
2023-11-22T17:48:26.691Z,62.24
2023-11-22T17:53:33.932Z,62.36
2023-11-22T17:58:41.607Z,62.37
2023-11-22T18:03:49.089Z,62.49
2023-11-22T18:08:59.080Z,62.61
2023-11-22T18:14:08.610Z,62.53
2023-11-22T18:19:15.767Z,62.47
2023-11-22T18:24:23.976Z,62.53
2023-11-22T18:29:31.229Z,62.58
2023-11-22T18:34:38.217Z,62.72
2023-11-22T18:39:45.275Z,62.90
2023-11-22T18:44:52.427Z,62.93
2023-11-22T18:49:59.627Z,62.96
2023-11-22T18:55:07.253Z,63.00
2023-11-22T19:00:15.639Z,62.97
2023-11-22T19:05:22.957Z,63.10
2023-11-22T19:10:30.185Z,63.05
2023-11-22T19:15:45.514Z,63.23
2023-11-22T19:20:55.712Z,63.06
2023-11-22T19:26:02.809Z,63.24
2023-11-22T19:31:13.284Z,63.35
2023-11-22T19:36:26.609Z,63.36
2023-11-22T19:41:33.517Z,63.38
2023-11-22T19:46:43.326Z,63.36
2023-11-22T19:51:51.555Z,63.58
2023-11-22T19:56:59.200Z,63.69
2023-11-22T20:02:06.687Z,63.57
2023-11-22T20:07:14.074Z,63.53
2023-11-22T20:12:21.218Z,63.65
2023-11-22T20:17:28.677Z,63.42
2023-11-22T20:22:35.677Z,63.74
2023-11-22T20:27:43.133Z,63.66
2023-11-22T20:32:50.140Z,63.68
2023-11-22T20:37:57.222Z,63.55
2023-11-22T20:43:04.028Z,63.45
2023-11-22T20:48:11.311Z,63.61
2023-11-22T20:53:18.797Z,63.86
2023-11-22T20:58:25.912Z,63.62
2023-11-22T21:03:32.971Z,63.40
2023-11-22T21:08:40.323Z,63.48
2023-11-22T21:13:47.667Z,63.58
2023-11-22T21:18:54.803Z,63.50
2023-11-22T21:24:01.933Z,63.51
2023-11-22T21:29:09.032Z,63.72
2023-11-22T21:34:15.894Z,63.69
2023-11-22T21:39:24.726Z,63.79
2023-11-22T21:44:33.005Z,63.80
2023-11-22T21:49:41.012Z,63.68
2023-11-22T21:54:48.163Z,63.73
2023-11-22T21:59:56.179Z,63.95
2023-11-22T22:05:03.157Z,63.78
2023-11-22T22:10:10.947Z,63.78
2023-11-22T22:15:18.289Z,63.79
2023-11-22T22:20:26.649Z,63.89
2023-11-22T22:25:33.618Z,63.67
2023-11-22T22:30:40.611Z,63.72
2023-11-22T22:35:47.718Z,63.81
2023-11-22T22:40:54.709Z,64.00
2023-11-22T22:46:01.656Z,63.78
2023-11-22T22:51:13.416Z,63.86
2023-11-22T22:56:22.171Z,64.09
2023-11-22T23:01:29.409Z,63.88
2023-11-22T23:06:37.490Z,64.02
2023-11-22T23:11:44.846Z,63.84
2023-11-22T23:16:52.113Z,63.89
2023-11-22T23:22:00.230Z,64.30
2023-11-22T23:27:07.629Z,64.00
2023-11-22T23:32:14.625Z,63.94
2023-11-22T23:37:21.733Z,64.03
2023-11-22T23:42:29.450Z,63.89
2023-11-22T23:47:36.651Z,63.91
2023-11-22T23:52:45.496Z,64.09
2023-11-22T23:57:52.721Z,64.11
